< < Back
Terminal Aerodrome Forecast


Current Version              Previous Versions:   1  2  3  4  5  6  7  8  9  

Terminal Aerodrome Forecast

437
FTUS44 KOHX 282325
TAFBNA
TAF
KBNA 282325Z 2900/2924 26006KT P6SM SKC
     FM290400 VRB03KT P6SM SKC
     FM291500 10006KT P6SM SCT200=

Latest METAR

432
SAUS70 KWBC 300100 RRK
MTRBNA
METAR KBNA 300053Z 14004KT 10SM OVC100 19/16 A2997 RMK AO2 SLP145
T01890161


USA.gov is the U.S. government's official web portal to all federal, state and local government web resources and services.